Time;durP1;ratioP1;P1;durP2;ratioP2;P2;SDS_P1;SDS_P2;PMS_P1;PMS_P2;Temp;Humidity;BMP_temperature;BMP_pressure;BME280_temperature;BME280_humidity;BME280_pressure;Samples;Min_cycle;Max_cycle;Signal;HPM_P1;HPM_P2
2022/06/23 00:01:59;;;;;;;0.30;0.30;;;20.40;72.50;;;20.75;56.86;94632.72;5055749;28;20257;-78
2022/06/23 00:04:33;;;;;;;0.40;0.40;;;20.40;72.60;;;20.73;56.50;94626.88;5089606;28;20190;-77
2022/06/23 00:07:05;;;;;;;0.40;0.40;;;20.40;72.60;;;20.73;57.13;94630.31;5073320;28;20219;-79
2022/06/23 00:09:48;;;;;;;0.40;0.40;;;20.30;72.70;;;20.72;56.80;94630.59;5064359;28;20322;-78
2022/06/23 00:12:18;;;;;;;0.45;0.45;;;20.30;73.60;;;20.72;56.95;94639.38;5036719;28;20238;-78
2022/06/23 00:15:03;;;;;;;0.40;0.40;;;20.30;73.10;;;20.70;56.71;94646.81;5068874;28;20227;-78
2022/06/23 00:17:36;;;;;;;0.40;0.40;;;20.30;72.70;;;20.67;56.48;94639.34;5069760;28;20222;-79
2022/06/23 00:20:10;;;;;;;0.40;0.40;;;20.30;72.50;;;20.68;56.73;94637.47;5069506;28;20730;-79
2022/06/23 00:22:43;;;;;;;0.40;0.40;;;20.30;73.00;;;20.65;56.67;94636.13;5069484;28;20350;-79
2022/06/23 00:25:31;;;;;;;0.40;0.40;;;20.30;73.00;;;20.61;56.67;94638.50;5058411;28;20303;-79
2022/06/23 00:27:59;;;;;;;0.50;0.50;;;20.30;73.50;;;20.61;56.73;94641.19;5036618;28;20199;-79
2022/06/23 00:30:37;;;;;;;0.50;0.50;;;20.30;72.80;;;20.60;56.94;94634.28;5036338;28;20715;-79
2022/06/23 00:33:18;;;;;;;0.40;0.40;;;20.30;73.50;;;20.59;57.51;94643.31;5069482;28;20244;-79
2022/06/23 00:35:49;;;;;;;0.40;0.40;;;20.30;74.20;;;20.59;57.91;94635.34;5052726;28;20215;-79
2022/06/23 00:38:31;;;;;;;0.45;0.45;;;20.30;73.40;;;20.57;57.97;94634.00;5069686;28;20245;-79
2022/06/23 00:41:00;;;;;;;0.40;0.40;;;20.20;74.10;;;20.58;57.48;94639.06;5052311;28;20230;-79
2022/06/23 00:43:29;;;;;;;0.40;0.40;;;20.30;73.50;;;20.58;57.53;94643.56;5046154;28;20210;-79
2022/06/23 00:46:13;;;;;;;0.47;0.47;;;20.30;73.50;;;20.55;58.17;94638.78;5072501;28;20234;-78
2022/06/23 00:49:18;;;;;;;0.40;0.40;;;20.30;74.00;;;20.51;57.82;94645.66;5072783;28;20198;-79
2022/06/23 00:51:59;;;;;;;0.40;0.40;;;20.30;73.70;;;20.42;58.49;94645.38;5055713;28;20223;-78
2022/06/23 00:54:35;;;;;;;0.40;0.40;;;20.20;73.80;;;20.40;58.63;94648.31;5053288;28;20667;-78
2022/06/23 00:57:26;;;;;;;0.30;0.30;;;20.20;73.80;;;20.37;58.82;94642.69;5052103;28;20627;-78
2022/06/23 01:00:22;;;;;;;0.40;0.40;;;20.20;74.30;;;20.31;58.97;94650.66;5049993;28;20223;-78
2022/06/23 01:02:58;;;;;;;0.55;0.55;;;20.10;73.70;;;20.28;59.25;94656.50;5051085;28;20810;-79
2022/06/23 01:05:45;;;;;;;0.40;0.40;;;20.10;74.40;;;20.28;59.51;94667.16;5070309;28;20222;-78
2022/06/23 01:08:46;;;;;;;0.50;0.50;;;20.10;74.50;;;20.22;59.37;94673.50;5055488;28;20667;-78
2022/06/23 01:11:49;;;;;;;0.47;0.47;;;20.00;74.60;;;20.22;59.60;94668.19;5085470;28;20324;-78
2022/06/23 01:14:43;;;;;;;0.40;0.40;;;20.00;74.70;;;20.22;59.88;94676.19;5035956;28;20290;-79
2022/06/23 01:17:19;;;;;;;0.40;0.40;;;20.00;75.00;;;20.25;60.00;94682.84;5035497;28;20658;-79
2022/06/23 01:20:05;;;;;;;0.43;0.43;;;20.00;75.00;;;20.26;60.17;94684.47;5051834;28;20226;-78
2022/06/23 01:22:59;;;;;;;0.50;0.50;;;20.00;74.90;;;20.27;60.80;94683.41;5051937;28;20239;-78
2022/06/23 01:26:10;;;;;;;0.40;0.40;;;20.10;75.00;;;20.30;59.84;94685.56;5069081;28;20262;-78
2022/06/23 01:28:40;;;;;;;0.50;0.50;;;20.10;75.50;;;20.31;60.69;94695.13;5040634;28;20727;-79
2022/06/23 01:31:11;;;;;;;0.40;0.40;;;20.10;75.10;;;;;;5060500;28;20239;-79
2022/06/23 01:33:48;;;;;;;0.43;0.43;;;20.10;75.50;;;20.36;60.69;94691.69;5071635;28;20198;-78
2022/06/23 01:36:44;;;;;;;0.40;0.40;;;20.10;75.70;;;20.34;60.71;94691.97;5071591;28;20610;-79
2022/06/23 01:39:37;;;;;;;0.43;0.43;;;20.10;75.80;;;20.34;60.28;94691.97;5070684;28;20195;-78
2022/06/23 01:42:22;;;;;;;0.40;0.40;;;20.10;75.70;;;20.33;60.75;94685.03;5055056;28;20237;-78
2022/06/23 01:44:53;;;;;;;0.40;0.40;;;20.10;75.20;;;20.36;60.67;94694.34;5051613;28;20219;-79
2022/06/23 01:47:50;;;;;;;0.40;0.40;;;20.10;75.40;;;20.33;60.33;94698.34;5054865;28;20252;-78
2022/06/23 01:50:50;;;;;;;0.50;0.50;;;20.10;75.40;;;20.32;60.38;94694.06;5047095;28;20242;-78
2022/06/23 01:53:17;;;;;;;0.40;0.40;;;20.10;75.90;;;20.33;60.40;94695.69;5052289;28;20603;-78
2022/06/23 01:56:05;;;;;;;0.40;0.40;;;20.10;75.20;;;20.35;60.54;94701.56;5054643;28;20214;-79
2022/06/23 01:59:19;;;;;;;0.40;0.40;;;20.10;75.80;;;20.33;60.46;94701.00;5053229;28;20202;-78
2022/06/23 02:02:15;;;;;;;0.50;0.50;;;20.10;75.90;;;20.33;59.91;94701.00;5064579;28;20276;-79
2022/06/23 02:05:50;;;;;;;0.40;0.40;;;20.10;75.60;;;20.29;59.82;94700.72;5051330;28;20231;-78
2022/06/23 02:08:42;;;;;;;0.30;0.30;;;20.10;75.50;;;20.26;60.03;94698.59;5034828;28;20206;-79
2022/06/23 02:11:18;;;;;;;0.40;0.40;;;20.20;75.40;;;20.27;59.73;94700.16;5052907;28;20233;-80
2022/06/23 02:13:51;;;;;;;0.40;0.40;;;20.10;75.50;;;20.27;60.83;94702.03;5054761;28;20198;-79
2022/06/23 02:16:28;;;;;;;0.50;0.50;;;20.00;75.50;;;20.26;61.00;94711.91;5054453;28;20215;-78
2022/06/23 02:19:23;;;;;;;0.40;0.40;;;20.10;75.80;;;20.26;61.93;94708.44;5071045;28;20262;-78
2022/06/23 02:22:12;;;;;;;0.40;0.40;;;20.10;76.40;;;20.25;61.48;94707.63;5054040;28;20656;-78
2022/06/23 02:24:54;;;;;;;0.50;0.50;;;20.10;76.60;;;20.24;61.77;94697.25;5063606;28;20213;-78
2022/06/23 02:27:46;;;;;;;0.40;0.40;;;20.10;77.30;;;20.28;62.26;94703.66;5073227;28;20256;-78
2022/06/23 02:30:20;;;;;;;0.30;0.30;;;20.10;76.70;;;20.31;62.15;94708.44;5065802;28;20597;-79
2022/06/23 02:33:04;;;;;;;0.40;0.40;;;20.10;76.80;;;20.36;61.25;94711.16;5072734;28;20746;-78
2022/06/23 02:36:01;;;;;;;0.40;0.40;;;20.10;76.90;;;20.38;61.31;94706.34;5064617;28;20675;-78
2022/06/23 02:38:45;;;;;;;0.40;0.40;;;20.10;76.80;;;20.42;61.18;94706.63;5052836;28;20241;-79
2022/06/23 02:41:30;;;;;;;0.32;0.32;;;20.20;76.50;;;20.42;61.97;94709.31;5067440;28;20229;-78
2022/06/23 02:44:06;;;;;;;0.43;0.43;;;20.20;76.70;;;20.43;62.14;94713.56;5069587;28;20214;-78
2022/06/23 02:47:01;;;;;;;0.43;0.43;;;20.20;76.70;;;20.41;62.73;94721.84;5064880;28;20222;-79
2022/06/23 02:49:40;;;;;;;0.50;0.50;;;20.20;76.90;;;20.43;62.37;94718.91;5061032;28;20291;-78
2022/06/23 02:52:25;;;;;;;0.40;0.40;;;20.20;77.20;;;20.44;62.61;94715.97;5065382;28;20187;-79
2022/06/23 02:55:13;;;;;;;0.40;0.40;;;20.30;77.20;;;20.44;62.38;94718.63;5062751;28;20247;-78
2022/06/23 02:57:59;;;;;;;0.40;0.40;;;20.20;77.10;;;20.46;61.99;94727.19;5048480;28;20649;-78
2022/06/23 03:00:56;;;;;;;0.40;0.40;;;20.30;76.70;;;20.47;61.63;94725.34;5075063;28;20215;-78
2022/06/23 03:03:36;;;;;;;0.40;0.40;;;20.30;77.10;;;20.44;62.16;94726.63;5074625;28;20222;-78
2022/06/23 03:06:51;;;;;;;0.45;0.45;;;20.20;76.80;;;20.39;61.70;94728.47;5074445;28;20210;-78
2022/06/23 03:09:23;;;;;;;0.50;0.50;;;20.30;77.10;;;20.41;62.08;94737.00;5074395;28;20195;-79
2022/06/23 03:12:00;;;;;;;0.40;0.40;;;20.20;76.80;;;20.42;61.54;94739.44;5051544;28;20198;-79
2022/06/23 03:15:01;;;;;;;0.50;0.50;;;20.20;76.80;;;20.42;61.66;94739.44;5070266;28;20530;-79
2022/06/23 03:17:48;;;;;;;0.50;0.50;;;20.20;77.00;;;20.38;61.11;94733.00;5054116;28;20652;-79
2022/06/23 03:20:27;;;;;;;0.47;0.47;;;20.20;76.90;;;20.47;61.07;94752.78;5059983;28;20580;-78
2022/06/23 03:23:35;;;;;;;0.40;0.40;;;20.20;76.50;;;20.44;61.29;94744.50;5075401;28;20218;-79
2022/06/23 03:26:29;;;;;;;0.50;0.50;;;20.20;77.00;;;20.42;61.06;94744.75;5052136;28;20222;-78
2022/06/23 03:29:11;;;;;;;0.40;0.40;;;20.10;76.80;;;20.44;60.81;94753.28;5028294;28;20290;-80
2022/06/23 03:32:04;;;;;;;0.40;0.40;;;20.10;76.80;;;20.43;61.16;94751.69;5070410;28;20260;-80
2022/06/23 03:35:09;;;;;;;0.40;0.40;;;20.20;76.80;;;20.44;60.81;94753.28;5051360;28;20214;-80
2022/06/23 03:37:55;;;;;;;0.50;0.50;;;20.20;76.70;;;20.45;60.82;94756.75;5090657;28;20198;-80
2022/06/23 03:43:56;;;;;;;0.40;0.40;;;20.10;77.10;;;20.48;61.54;94762.38;5073517;28;20237;-80
2022/06/23 03:46:32;;;;;;;0.50;0.50;;;20.20;77.00;;;20.51;60.90;94757.56;5073620;28;20272;-80
2022/06/23 03:49:30;;;;;;;0.50;0.50;;;20.20;76.60;;;20.52;61.07;94753.84;5056750;28;20230;-80
2022/06/23 03:52:02;;;;;;;0.50;0.50;;;20.20;77.10;;;20.57;61.42;94767.22;5058097;28;20207;-79
2022/06/23 03:54:57;;;;;;;0.40;0.40;;;20.30;76.80;;;20.60;61.31;94770.16;5090514;28;20252;-80
2022/06/23 03:57:43;;;;;;;0.50;0.50;;;20.30;77.00;;;20.67;61.35;94771.81;5073419;28;20301;-80
2022/06/23 04:00:36;;;;;;;0.40;0.40;;;20.30;77.20;;;20.72;61.49;94783.31;5063802;28;20685;-81
2022/06/23 04:03:30;;;;;;;0.40;0.40;;;20.40;77.40;;;20.79;61.61;94786.53;5039719;28;20298;-80
2022/06/23 04:05:57;;;;;;;0.40;0.40;;;20.50;77.40;;;20.87;61.54;94787.09;5055641;28;20230;-80
2022/06/23 04:08:31;;;;;;;0.40;0.40;;;20.60;77.10;;;20.94;61.20;94785.78;5094819;28;20198;-80
2022/06/23 04:14:04;;;;;;;0.50;0.50;;;20.70;77.30;;;21.10;60.99;94791.19;5067664;28;20224;-81
2022/06/23 04:16:33;;;;;;;0.40;0.40;;;20.80;77.20;;;21.15;60.89;94796.53;5059855;28;20254;-79
2022/06/23 04:19:09;;;;;;;0.40;0.40;;;20.80;76.70;;;21.16;60.61;94792.81;5019471;28;20671;-81
2022/06/23 04:21:45;;;;;;;0.40;0.40;;;20.90;77.60;;;21.20;60.69;94796.59;5051078;28;20269;-80
2022/06/23 04:24:20;;;;;;;0.40;0.40;;;20.90;76.50;;;21.21;60.42;94797.38;5034412;28;20287;-80
2022/06/23 04:26:53;;;;;;;0.40;0.40;;;20.90;76.50;;;21.22;60.60;94802.44;5070788;28;20229;-79
2022/06/23 04:29:30;;;;;;;0.40;0.40;;;20.90;76.40;;;21.23;60.73;94803.25;5083034;28;20203;-80
2022/06/23 04:32:06;;;;;;;0.40;0.40;;;21.00;76.70;;;21.24;60.78;94808.31;5051058;28;20199;-81
2022/06/23 04:34:49;;;;;;;0.40;0.40;;;21.00;77.40;;;21.25;60.82;94809.94;5034279;28;20215;-81
2022/06/23 04:37:45;;;;;;;0.50;0.50;;;21.00;76.50;;;21.28;60.98;94813.94;5050351;28;20195;-80
2022/06/23 04:40:27;;;;;;;0.40;0.40;;;21.00;76.60;;;21.36;61.14;94824.09;5067422;28;20697;-81
2022/06/23 04:43:20;;;;;;;0.40;0.40;;;21.00;76.60;;;21.44;61.42;94820.13;5051810;28;20252;-81
2022/06/23 04:45:52;;;;;;;0.50;0.50;;;21.20;77.00;;;21.56;61.31;94827.91;5043105;28;20697;-81
2022/06/23 04:48:30;;;;;;;0.38;0.38;;;21.30;77.10;;;21.67;60.97;94826.88;5055183;28;20261;-80
2022/06/23 04:51:29;;;;;;;0.30;0.30;;;21.30;77.10;;;21.78;61.37;94826.91;5072346;28;20272;-81
2022/06/23 04:54:17;;;;;;;0.40;0.40;;;21.40;77.00;;;21.88;61.22;94833.03;5054657;28;20232;-80
2022/06/23 04:56:51;;;;;;;0.40;0.40;;;21.60;77.20;;;21.98;61.19;94832.25;5050814;28;20282;-82
2022/06/23 04:59:34;;;;;;;0.50;0.50;;;21.60;77.00;;;22.11;60.87;94830.16;5055843;28;20183;-81
2022/06/23 05:02:29;;;;;;;0.40;0.40;;;21.70;77.10;;;22.18;60.54;94831.47;5072248;28;20199;-82
2022/06/23 05:05:14;;;;;;;0.40;0.40;;;21.80;77.00;;;22.27;61.13;94829.06;5051396;28;20221;-81
2022/06/23 05:08:00;;;;;;;0.40;0.40;;;21.90;76.90;;;22.34;60.64;94834.94;5051836;28;20206;-80
2022/06/23 05:10:45;;;;;;;0.30;0.30;;;22.00;76.80;;;22.43;60.86;94835.22;5036903;28;20281;-81
2022/06/23 05:13:19;;;;;;;0.40;0.40;;;22.10;77.70;;;22.49;60.67;94836.03;5052103;28;20549;-82
2022/06/23 05:16:07;;;;;;;0.40;0.40;;;22.20;76.90;;;22.58;60.66;94841.63;5050413;28;20253;-81
2022/06/23 05:18:48;;;;;;;0.57;0.57;;;22.20;76.90;;;22.69;60.88;94836.00;5038311;28;20202;-80
2022/06/23 05:21:41;;;;;;;0.30;0.30;;;22.30;76.90;;;22.84;61.09;94831.72;5059421;28;20745;-82
2022/06/23 05:24:21;;;;;;;0.40;0.40;;;22.50;77.00;;;23.05;61.02;94847.69;5059185;28;20416;-82
2022/06/23 05:27:04;;;;;;;0.50;0.50;;;22.60;77.30;;;23.27;60.95;94847.38;5047361;28;20203;-81
2022/06/23 05:29:33;;;;;;;0.40;0.40;;;22.80;77.20;;;23.45;61.12;94845.97;5046794;28;20697;-81
2022/06/23 05:32:35;;;;;;;0.30;0.30;;;23.00;77.20;;;23.62;60.64;94845.59;5065901;28;20291;-81
2022/06/23 05:35:30;;;;;;;0.40;0.40;;;23.20;76.80;;;23.77;60.10;94839.38;5035198;28;20219;-81
2022/06/23 05:38:07;;;;;;;0.40;0.40;;;23.40;76.50;;;23.85;59.89;94840.66;5052040;28;20251;-81
2022/06/23 05:40:50;;;;;;;0.40;0.40;;;23.50;76.20;;;23.92;60.09;94846.50;5026950;28;20221;-82
2022/06/23 05:43:18;;;;;;;0.40;0.40;;;23.60;76.00;;;24.01;59.94;94846.75;5050664;28;20226;-81
2022/06/23 05:45:50;;;;;;;0.30;0.30;;;23.70;76.20;;;24.11;59.93;94852.03;5061950;28;20228;-81
2022/06/23 05:48:29;;;;;;;0.60;0.60;;;23.80;75.90;;;24.18;59.59;94851.72;5067912;28;20282;-81
2022/06/23 05:51:29;;;;;;;0.40;0.40;;;23.90;75.60;;;24.24;59.47;94856.78;5051671;28;20708;-81
2022/06/23 05:54:06;;;;;;;0.40;0.40;;;24.00;75.80;;;24.30;58.89;94847.59;5039009;28;20639;-82
2022/06/23 05:56:40;;;;;;;0.60;0.60;;;24.10;75.10;;;24.39;59.01;94855.03;5078420;28;20214;-80
2022/06/23 05:59:21;;;;;;;0.40;0.40;;;24.20;75.00;;;24.52;59.32;94857.06;5070661;28;20272;-82
2022/06/23 06:02:21;;;;;;;0.40;0.40;;;24.30;75.30;;;24.64;59.10;94861.25;5070329;28;20198;-81
2022/06/23 06:04:56;;;;;;;0.57;0.57;;;24.40;75.00;;;24.74;58.73;94851.28;5070379;28;20229;-81
2022/06/23 06:07:35;;;;;;;0.40;0.40;;;24.60;74.50;;;24.83;58.15;94856.81;5044849;28;20280;-80
2022/06/23 06:10:12;;;;;;;0.45;0.45;;;24.60;73.90;;;24.90;57.80;94856.47;5052718;28;20314;-80
2022/06/23 06:12:42;;;;;;;0.40;0.40;;;24.70;73.70;;;24.95;57.66;94856.44;5051790;28;20568;-80
2022/06/23 06:15:32;;;;;;;0.40;0.40;;;24.80;73.60;;;25.01;57.42;94852.63;5036954;28;20309;-80
2022/06/23 06:18:26;;;;;;;0.38;0.38;;;24.90;72.90;;;25.05;57.32;94848.25;5018350;28;20191;-80
2022/06/23 06:20:58;;;;;;;0.40;0.40;;;24.90;73.20;;;25.08;56.90;94860.31;5037145;28;20222;-80
2022/06/23 06:24:03;;;;;;;0.32;0.32;;;25.00;72.70;;;25.01;57.08;94859.84;5051127;28;20305;-82
2022/06/23 06:26:38;;;;;;;0.30;0.30;;;25.00;73.80;;;24.99;56.89;94870.88;5050908;28;20215;-80
2022/06/23 06:29:26;;;;;;;0.40;0.40;;;25.00;72.50;;;24.99;57.77;94878.91;5035969;28;20197;-81
2022/06/23 06:32:33;;;;;;;0.50;0.50;;;25.00;72.80;;;25.07;57.57;94874.81;5019392;28;20216;-79
2022/06/23 06:35:32;;;;;;;0.30;0.30;;;25.00;73.00;;;25.12;57.66;94873.97;5071249;28;20222;-80
2022/06/23 06:38:07;;;;;;;0.40;0.40;;;25.00;72.80;;;25.17;57.31;94873.91;5065202;28;20307;-81
2022/06/23 06:40:37;;;;;;;0.30;0.30;;;25.20;72.80;;;25.21;56.87;94872.25;5023007;28;20581;-81
2022/06/23 06:43:14;;;;;;;0.40;0.40;;;25.10;72.60;;;25.23;57.13;94870.88;5055041;28;20224;-79
2022/06/23 06:45:42;;;;;;;0.30;0.30;;;25.20;72.60;;;25.26;57.07;94872.97;5066665;28;20211;-81
2022/06/23 06:48:26;;;;;;;0.40;0.40;;;25.10;72.90;;;25.25;56.71;94870.59;5088987;28;20218;-80
2022/06/23 06:51:07;;;;;;;0.30;0.30;;;25.20;72.60;;;25.30;57.03;94880.47;5069851;28;20274;-80
2022/06/23 06:53:41;;;;;;;0.50;0.50;;;25.20;72.00;;;25.34;56.73;94889.53;5034437;28;20208;-81
2022/06/23 06:56:28;;;;;;;0.40;0.40;;;25.20;72.20;;;25.33;56.37;94882.56;5051244;28;20263;-80
2022/06/23 06:59:22;;;;;;;0.30;0.30;;;25.30;72.10;;;25.38;56.78;94874.50;5034213;28;20203;-80
2022/06/23 07:02:01;;;;;;;0.40;0.40;;;25.30;72.30;;;25.37;56.54;94881.75;5068169;28;20637;-79
2022/06/23 07:04:44;;;;;;;0.30;0.30;;;25.40;72.20;;;25.42;56.38;94879.00;5035844;28;20270;-80
2022/06/23 07:07:23;;;;;;;0.30;0.30;;;25.30;71.90;;;25.46;56.22;94891.88;5050891;28;20254;-81
2022/06/23 07:10:03;;;;;;;0.30;0.30;;;25.40;71.80;;;25.51;56.28;94887.25;5066121;28;20581;-80
2022/06/23 07:12:41;;;;;;;0.32;0.32;;;25.40;71.80;;;25.56;56.33;94889.03;5046964;28;20205;-81
2022/06/23 07:15:36;;;;;;;0.40;0.40;;;25.40;72.00;;;25.60;56.20;94892.78;5026291;28;20229;-80
2022/06/23 07:18:41;;;;;;;0.40;0.40;;;25.50;71.60;;;25.64;56.24;94887.63;5058040;28;20620;-80
2022/06/23 07:21:19;;;;;;;0.40;0.40;;;25.50;71.80;;;25.71;55.81;94896.13;5066453;28;20225;-80
2022/06/23 07:24:13;;;;;;;0.50;0.50;;;25.60;71.70;;;25.70;55.99;94887.25;5077466;28;20665;-80
2022/06/23 07:27:01;;;;;;;0.45;0.45;;;25.60;71.70;;;25.77;56.13;94897.66;5060891;28;20221;-80
2022/06/23 07:30:04;;;;;;;0.40;0.40;;;25.60;71.40;;;25.74;55.67;94898.22;5039683;28;20543;-80
2022/06/23 07:32:44;;;;;;;0.47;0.47;;;25.70;71.40;;;25.72;55.58;94901.22;5079972;28;20212;-80
2022/06/23 07:35:42;;;;;;;0.40;0.40;;;25.70;71.10;;;25.73;55.41;94900.13;5092110;28;20227;-80
2022/06/23 07:38:24;;;;;;;0.30;0.30;;;25.70;71.40;;;25.82;55.42;94899.47;5057565;28;20196;-80
2022/06/23 07:41:24;;;;;;;0.30;0.30;;;25.70;71.30;;;25.85;55.74;94907.78;5041349;28;20333;-80
2022/06/23 07:44:12;;;;;;;0.30;0.30;;;25.70;71.40;;;25.86;55.80;94901.28;5068111;28;20754;-81
2022/06/23 07:46:40;;;;;;;0.30;0.30;;;25.80;71.20;;;25.89;55.45;94908.00;5054764;28;20203;-80
2022/06/23 07:49:08;;;;;;;0.30;0.30;;;25.80;71.00;;;25.88;55.36;94907.19;5072965;28;20270;-81
2022/06/23 07:51:36;;;;;;;0.30;0.30;;;25.80;70.90;;;25.92;55.03;94902.03;5073454;28;20223;-80
2022/06/23 07:54:06;;;;;;;0.30;0.30;;;25.80;70.80;;;25.93;54.80;94905.50;5073868;28;20197;-81
2022/06/23 07:56:37;;;;;;;0.30;0.30;;;25.80;70.60;;;25.92;54.88;94904.72;5055249;28;20266;-80
2022/06/23 07:59:13;;;;;;;0.30;0.30;;;25.80;70.60;;;25.93;55.03;94909.00;5056786;28;20225;-80
2022/06/23 08:01:52;;;;;;;0.30;0.30;;;25.80;70.60;;;26.00;55.07;94908.63;5056906;28;20281;-81
2022/06/23 08:04:33;;;;;;;0.30;0.30;;;25.80;70.80;;;26.07;55.16;94905.63;5090257;28;20236;-80
2022/06/23 08:07:05;;;;;;;0.30;0.30;;;25.80;70.90;;;26.15;55.58;94903.06;5039239;28;20210;-80
2022/06/23 08:09:44;;;;;;;0.20;0.20;;;25.90;71.20;;;26.32;55.74;94907.94;5036802;28;20308;-80
2022/06/23 08:18:06;;;;;;;0.22;0.22;;;26.40;71.30;;;26.96;55.02;94906.66;5067443;28;20294;-81
2022/06/23 08:20:47;;;;;;;0.22;0.22;;;26.70;70.70;;;27.15;54.56;94909.31;5069708;28;20271;-80
2022/06/23 08:23:16;;;;;;;0.30;0.30;;;26.80;70.40;;;27.32;54.30;94906.81;5045385;28;20230;-80
2022/06/23 08:25:44;;;;;;;0.30;0.30;;;27.00;70.30;;;27.43;54.42;94910.13;5052612;28;20693;-80
2022/06/23 08:28:11;;;;;;;0.30;0.30;;;27.20;70.00;;;27.53;54.02;94902.97;5053211;28;20204;-81
2022/06/23 08:30:40;;;;;;;0.30;0.30;;;27.40;69.70;;;27.63;53.81;94900.84;5036178;28;20224;-79
2022/06/23 08:33:09;;;;;;;0.30;0.30;;;27.50;69.90;;;27.73;53.77;94904.44;5051419;28;20220;-81
2022/06/23 08:35:47;;;;;;;0.30;0.30;;;27.60;69.00;;;27.80;52.73;94892.13;5051461;28;20235;-81
2022/06/23 08:38:23;;;;;;;0.20;0.20;;;27.70;69.00;;;27.90;53.26;94898.41;5057161;28;20205;-80
2022/06/23 08:41:17;;;;;;;0.20;0.20;;;27.80;69.00;;;27.99;53.03;94895.78;5074957;28;20326;-81
2022/06/23 08:43:54;;;;;;;0.40;0.40;;;27.90;69.10;;;28.13;53.51;94893.13;5063183;28;20586;-79
2022/06/23 08:46:45;;;;;;;0.20;0.20;;;28.00;69.20;;;28.23;53.12;94896.34;5055161;28;20244;-80
2022/06/23 08:49:36;;;;;;;0.20;0.20;;;28.10;69.20;;;28.40;52.80;94895.69;5055520;28;20201;-81
2022/06/23 08:52:30;;;;;;;0.20;0.20;;;28.30;69.30;;;28.55;53.06;94889.16;5056122;28;20206;-81
2022/06/23 08:55:30;;;;;;;0.30;0.30;;;28.40;68.10;;;28.71;52.07;94886.09;5075482;28;20748;-80
2022/06/23 08:59:08;;;;;;;0.25;0.25;;;28.60;67.90;;;28.88;51.88;94885.38;5062728;28;20611;-80
2022/06/23 09:01:44;;;;;;;0.40;0.40;;;28.70;68.40;;;29.07;52.11;94885.19;5076039;28;20213;-80
2022/06/23 09:04:48;;;;;;;0.40;0.40;;;28.90;67.70;;;29.27;51.87;94877.63;5059564;28;20338;-80
2022/06/23 09:08:04;;;;;;;0.30;0.30;;;29.10;67.50;;;29.41;50.92;94883.75;5052298;28;20198;-80
2022/06/23 09:10:55;;;;;;;0.28;0.28;;;29.30;66.90;;;29.48;51.01;94886.00;5071902;28;20228;-81
2022/06/23 09:14:13;;;;;;;0.30;0.30;;;29.40;66.60;;;29.50;50.14;94887.28;5051739;28;20300;-80
2022/06/23 09:17:21;;;;;;;0.30;0.30;;;29.50;66.80;;;29.51;50.09;94886.16;5040583;28;20217;-80
2022/06/23 09:19:54;;;;;;;0.30;0.30;;;29.50;65.90;;;29.56;50.32;94887.94;5037281;28;20643;-79
2022/06/23 09:22:36;;;;;;;0.25;0.25;;;29.50;66.10;;;29.58;49.97;94883.00;5049821;28;20205;-81
2022/06/23 09:25:21;;;;;;;0.30;0.30;;;29.50;65.70;;;29.63;50.02;94880.16;5035172;28;20616;-80
2022/06/23 09:28:10;;;;;;;0.35;0.35;;;29.60;65.90;;;29.73;50.07;94883.69;5053151;28;20229;-80
2022/06/23 09:30:46;;;;;;;0.30;0.30;;;29.60;65.70;;;29.81;49.07;94886.41;5051711;28;20236;-80
2022/06/23 09:34:05;;;;;;;0.30;0.30;;;29.70;65.20;;;29.84;49.47;94890.38;5068450;28;20205;-80
2022/06/23 09:37:03;;;;;;;0.40;0.40;;;29.80;65.10;;;29.90;48.85;94891.84;5051620;28;20229;-81
2022/06/23 09:40:07;;;;;;;0.30;0.30;;;29.90;64.90;;;29.86;49.11;94894.34;5054337;28;20689;-80
2022/06/23 09:43:17;;;;;;;0.30;0.30;;;29.90;64.70;;;29.77;48.27;94887.34;5071200;28;20200;-81
2022/06/23 09:46:13;;;;;;;0.30;0.30;;;29.90;64.40;;;29.67;48.12;94880.31;5087721;28;20692;-81
2022/06/23 09:49:14;;;;;;;0.30;0.30;;;29.80;64.20;;;29.59;48.56;94883.78;5065153;28;20287;-80
2022/06/23 09:52:27;;;;;;;0.30;0.30;;;29.70;64.00;;;29.52;48.87;94886.97;5062387;28;20206;-80
2022/06/23 09:55:38;;;;;;;0.30;0.30;;;29.70;64.00;;;29.50;48.09;94883.78;5064511;28;20227;-81
2022/06/23 09:58:48;;;;;;;0.30;0.30;;;29.60;64.30;;;29.48;48.80;94884.09;5034672;28;20218;-80
2022/06/23 10:01:29;;;;;;;0.30;0.30;;;29.60;64.00;;;29.51;47.60;94883.47;5035633;28;20226;-81
2022/06/23 10:04:35;;;;;;;0.30;0.30;;;29.60;63.70;;;29.52;47.99;94889.69;5071697;28;20225;-81
2022/06/23 10:07:10;;;;;;;0.20;0.20;;;29.60;63.60;;;29.54;47.61;94884.72;5071348;28;20259;-81
2022/06/23 10:10:08;;;;;;;0.30;0.30;;;29.60;63.60;;;29.55;47.25;94884.44;5061573;28;20219;-80
2022/06/23 10:13:08;;;;;;;0.30;0.30;;;29.70;63.10;;;29.56;47.66;94874.41;5039310;28;20216;-81
2022/06/23 10:15:57;;;;;;;0.40;0.40;;;29.70;63.40;;;29.59;47.47;94873.81;5054570;28;20267;-81
2022/06/23 10:18:47;;;;;;;0.30;0.30;;;29.70;63.50;;;29.67;47.49;94873.00;5069395;28;20206;-81
2022/06/23 10:21:48;;;;;;;0.35;0.35;;;29.70;62.60;;;29.75;46.34;94870.63;5078566;28;20275;-81
2022/06/23 10:24:48;;;;;;;0.30;0.30;;;29.80;62.20;;;29.81;45.59;94866.66;5052050;28;20226;-81
2022/06/23 10:28:06;;;;;;;0.20;0.20;;;29.80;62.10;;;29.88;45.08;94861.59;5050960;28;20636;-81
2022/06/23 10:30:55;;;;;;;0.30;0.30;;;29.90;61.50;;;29.95;45.08;94867.34;5051246;28;20226;-81
2022/06/23 10:34:11;;;;;;;0.30;0.30;;;30.00;61.40;;;30.06;45.71;94869.75;5052376;28;20194;-81
2022/06/23 10:37:16;;;;;;;0.30;0.30;;;30.00;61.80;;;30.19;45.43;94866.09;5036542;28;20208;-80
2022/06/23 10:39:56;;;;;;;0.40;0.40;;;30.20;61.40;;;30.33;44.62;94864.03;5067799;28;20559;-81
2022/06/23 10:43:20;;;;;;;0.30;0.30;;;30.30;60.70;;;30.47;44.50;94861.16;5038324;28;20212;-80
2022/06/23 10:45:59;;;;;;;0.40;0.40;;;30.40;61.30;;;30.62;44.75;94859.09;5073375;28;20530;-80
2022/06/23 10:48:48;;;;;;;0.30;0.30;;;30.60;61.00;;;30.72;43.90;94866.06;5038554;28;20206;-82
2022/06/23 10:51:42;;;;;;;0.38;0.38;;;30.70;61.10;;;30.82;43.54;94860.31;5075017;28;20226;-81
2022/06/23 10:54:23;;;;;;;0.30;0.30;;;30.80;60.30;;;30.98;44.24;94857.88;5074121;28;20654;-80
2022/06/23 10:57:08;;;;;;;0.30;0.30;;;30.90;60.70;;;31.14;43.83;94853.53;5073426;28;20233;-81
2022/06/23 11:00:04;;;;;;;0.30;0.30;;;31.00;61.50;;;31.29;43.97;94859.53;5071161;28;20229;-81
2022/06/23 11:03:21;;;;;;;0.30;0.30;;;31.20;60.50;;;31.40;43.70;94849.13;5071124;28;20258;-81
2022/06/23 11:06:11;;;;;;;0.20;0.20;;;31.30;60.30;;;31.52;42.68;94853.84;5069061;28;20379;-81
2022/06/23 11:08:47;;;;;;;0.30;0.30;;;31.40;58.90;;;31.60;42.15;94842.97;5054549;28;20204;-81
2022/06/23 11:11:26;;;;;;;0.40;0.40;;;31.50;58.90;;;31.69;42.13;94840.22;5061572;28;20219;-80
2022/06/23 11:14:13;;;;;;;0.40;0.40;;;31.60;58.40;;;31.72;41.27;94847.69;5095344;28;20556;-80
2022/06/23 11:16:52;;;;;;;0.30;0.30;;;31.70;57.70;;;31.74;41.00;94841.94;5089963;28;20284;-80
2022/06/23 11:20:07;;;;;;;0.30;0.30;;;31.70;57.50;;;31.69;41.28;94842.13;5062083;28;20689;-80
2022/06/23 11:23:11;;;;;;;0.30;0.30;;;31.70;57.70;;;31.60;40.68;94834.00;5038062;28;20205;-81
2022/06/23 11:25:51;;;;;;;0.28;0.28;;;31.70;56.20;;;31.54;40.30;94844.28;5073942;28;20261;-80
2022/06/23 11:28:29;;;;;;;0.30;0.30;;;31.70;56.00;;;31.50;40.84;94840.59;5057589;28;20590;-80
2022/06/23 11:31:20;;;;;;;0.30;0.30;;;31.60;56.10;;;31.46;41.11;94839.69;5083833;28;20259;-82
2022/06/23 11:34:17;;;;;;;0.35;0.35;;;31.50;57.00;;;31.44;40.60;94841.94;5051959;28;20654;-80
2022/06/23 11:37:20;;;;;;;0.30;0.30;;;31.50;56.40;;;31.41;40.64;94839.88;5062858;28;20266;-81
2022/06/23 11:40:15;;;;;;;0.30;0.30;;;31.40;56.70;;;31.39;40.09;94831.28;5073878;28;20215;-81
2022/06/23 11:43:01;;;;;;;0.30;0.30;;;31.40;56.20;;;31.37;39.76;94823.47;5055797;28;20262;-81
2022/06/23 11:45:57;;;;;;;0.28;0.28;;;31.40;55.70;;;31.32;39.67;94818.22;5073788;28;20292;-81
2022/06/23 11:48:52;;;;;;;0.30;0.30;;;31.40;56.30;;;31.29;40.22;94816.97;5060284;28;20243;-81
2022/06/23 11:51:33;;;;;;;0.30;0.30;;;31.30;56.60;;;31.28;40.13;94823.50;5066485;28;20228;-80
2022/06/23 11:54:23;;;;;;;0.20;0.20;;;31.30;55.50;;;31.29;40.25;94819.69;5056762;28;20754;-81